Airfield :
LOGIN :

Register | Disclaimer

   EN    FR    IT 

 










Legend :    VFR   Marginal VFR   IFR   Intensive IFR   Very Intensive IFR
Visi :
Ceiling :
>= 8 km
>= 3000ft
5 to 8 km
1000 to 3000 ft
1500m to 5 km
500 to 1000 ft
800 to 1500m
200 to 500 ft
< 800m
< 200 ft
Symbols :   Thunderstorms  Fog  Heavy snow  Heavy precipitations  Wind > 20 kt
SIGMETs :     Misc.  Thunderstorms  Icing  Turbulence  Mountain Waves  Volcanic Ashes







- Airport Elevation : 1306 ft
- IATA code : ACH


LSZR - Alten Rhein

CURRENT METAR :
  • 200520Z 10004KT 060V130 9999 RA BKN011 09/08 Q1022 NOSIG RMK B

EXPIRED METARs :
  • 200450Z 12006KT 090V170 9999 RA OVC013 09/08 Q1022 NOSIG RMK A
  • 200420Z 12006KT 090V170 9999 RA OVC013 09/08 Q1022 NOSIG RMK A
  • 200350Z AUTO 13004KT 030V190 9000 RA OVC013 09/08 Q1022
  • 200320Z AUTO 13005KT 090V160 9000 RA OVC011 09/08 Q1022
  • 200250Z AUTO 12004KT 090V190 9999 -RA OVC013 09/08 Q1021

TAF TAF LSZR
Valid from the 20 at 06:00 until the 20 at 15:00 UTC


200525Z 2006/2015 11005KT 9999 RA OVC013
BECMG 2008/2011 NSW SCT030
PROB40
TEMPO 2010/2015 SHRA SCT030TCU
ATIS : +41 71 858 51 66
No reported NOTAMs for that airfield.



MET'MAP, your aeronautical weather chart ! - Copyright ORBIFLY December 2007 - Disclaimer

ORBIFLY MET'MAP TEAM :

Programming & Development : Alexandra Zaïnal
Concept & Development : Baudouin d'Aumeries
Co-Development & Prog : Marc-Olivier Méhu
Technical & hardware support : Manuel Goepfert

Contact : metmap@orbifly.com




SOURCES & CREDITS :

   NOAA